Phillipston, Massachusetts
Current Conditions -  °F | °C
As of 11:01 AM on Wednesday 26 Nov 2014 (Local Time) from KORE Reporting Station
Heavy Snow Heavy Snow  
Wind Chill: 33°   Ceiling: 800
Heat Index: 33°   Visibility: 0.25mi
Dew Point: 32°   Wind: 0mph
Humidity: 96%   Direction: NA
Pressure: 30.15"   Gusts: NA
Location:  42.617°N, 72.1846°W
Report Text: KORE 261601Z AUTO 00000KT 1/4SM +SN FG VV008 01/00 A3015 RMK AO2 P0002 T00060000
Loading
Personal Weather Stations






























Interactive Weather Map New forecast layout! Learn more

10-Day Weather Forecast

Advertisements
Track Severe Weather on mobile